Time;durP1;ratioP1;P1;durP2;ratioP2;P2;SDS_P1;SDS_P2;PMS_P1;PMS_P2;Temp;Humidity;BMP_temperature;BMP_pressure;BME280_temperature;BME280_humidity;BME280_pressure;Samples;Min_cycle;Max_cycle;Signal;HPM_P1;HPM_P2
2021/05/12 00:00:15;;;;;;;5.90;3.30;;;11.80;99.90;;;;;;5075563;28;20655;-63
2021/05/12 00:02:42;;;;;;;5.90;3.83;;;11.90;99.90;;;;;;5075454;28;20192;-63
2021/05/12 00:05:10;;;;;;;5.28;3.47;;;11.80;99.90;;;;;;5057404;28;20212;-63
2021/05/12 00:07:36;;;;;;;9.25;3.90;;;11.80;99.90;;;;;;5075313;28;20214;-63
2021/05/12 00:10:08;;;;;;;4.70;3.70;;;11.70;99.90;;;;;;5075078;28;20211;-63
2021/05/12 00:12:35;;;;;;;4.10;3.80;;;11.60;99.90;;;;;;5075299;28;20200;-63
2021/05/12 00:15:08;;;;;;;7.07;3.40;;;11.70;99.90;;;;;;5075399;28;20210;-63
2021/05/12 00:17:37;;;;;;;4.22;3.75;;;;;;;;;;5075053;28;20215;-63
2021/05/12 00:20:06;;;;;;;3.80;3.45;;;11.30;99.90;;;;;;5074921;28;20199;-63
2021/05/12 00:24:59;;;;;;;3.78;3.45;;;11.50;99.90;;;;;;5074807;28;20198;-63
2021/05/12 00:27:25;;;;;;;4.80;3.85;;;11.70;99.90;;;;;;5074950;28;20208;-63
2021/05/12 00:29:52;;;;;;;5.18;3.85;;;11.60;99.90;;;;;;5074654;28;20223;-63
2021/05/12 00:32:19;;;;;;;3.97;3.67;;;11.60;99.90;;;;;;5074778;28;20240;-63
2021/05/12 00:34:45;;;;;;;10.98;3.53;;;11.70;99.90;;;;;;5075009;28;20207;-63
2021/05/12 00:37:12;;;;;;;4.28;3.45;;;11.60;99.90;;;;;;5073678;28;20196;-63
2021/05/12 00:39:38;;;;;;;4.90;3.42;;;11.70;99.90;;;;;;5074347;28;20295;-64
2021/05/12 00:42:04;;;;;;;5.90;3.72;;;11.70;99.90;;;;;;5074919;28;20207;-64
2021/05/12 00:44:31;;;;;;;4.80;3.83;;;11.60;99.90;;;;;;5075202;28;20601;-64
2021/05/12 00:47:03;;;;;;;5.47;4.13;;;11.60;99.90;;;;;;5074966;28;20555;-64
2021/05/12 00:49:30;;;;;;;5.65;3.92;;;11.60;99.90;;;;;;5074677;28;20220;-64
2021/05/12 00:51:56;;;;;;;5.95;4.32;;;11.60;99.90;;;;;;5074326;28;20198;-64
2021/05/12 00:54:23;;;;;;;5.50;4.60;;;11.60;99.90;;;;;;5074064;28;20224;-64
2021/05/12 00:56:49;;;;;;;5.20;4.70;;;11.60;99.90;;;;;;5074509;28;20222;-64
2021/05/12 00:59:16;;;;;;;6.25;5.63;;;11.60;99.90;;;;;;5074271;28;20188;-62
2021/05/12 01:01:43;;;;;;;6.30;5.88;;;11.60;99.90;;;;;;5075068;28;20200;-62
2021/05/12 01:04:09;;;;;;;6.47;5.82;;;11.60;99.90;;;;;;5074392;28;20203;-64
2021/05/12 01:06:38;;;;;;;7.20;6.22;;;11.60;99.90;;;;;;5074052;28;20663;-63
2021/05/12 01:09:06;;;;;;;7.50;5.40;;;11.60;99.90;;;;;;5073986;28;20200;-64
2021/05/12 01:11:34;;;;;;;8.98;6.32;;;11.60;99.90;;;;;;5073186;28;20227;-63
2021/05/12 01:14:01;;;;;;;6.75;6.05;;;11.60;99.90;;;;;;5074070;28;20207;-64
2021/05/12 01:16:27;;;;;;;6.60;6.03;;;11.60;99.90;;;;;;5074032;28;20204;-64
2021/05/12 01:18:54;;;;;;;7.65;5.47;;;11.60;99.90;;;;;;5073838;28;20275;-64
2021/05/12 01:21:20;;;;;;;8.52;5.75;;;11.60;99.90;;;;;;5073861;28;20200;-64
2021/05/12 01:23:49;;;;;;;7.05;6.40;;;11.60;99.90;;;;;;5073789;28;20212;-64
2021/05/12 01:26:24;;;;;;;8.00;6.03;;;11.60;99.90;;;;;;5072170;28;20208;-64
2021/05/12 01:28:53;;;;;;;9.98;6.50;;;11.60;99.90;;;;;;5073848;28;20172;-64
2021/05/12 01:31:44;;;;;;;6.95;5.90;;;11.60;99.90;;;;;;5073619;28;20222;-64
2021/05/12 01:34:16;;;;;;;7.35;6.75;;;11.60;99.90;;;;;;5073102;28;20287;-64
2021/05/12 01:36:43;;;;;;;7.75;7.05;;;11.50;99.90;;;;;;5073650;28;20273;-63
2021/05/12 01:39:12;;;;;;;8.00;7.25;;;11.00;99.90;;;;;;5073551;28;20192;-63
2021/05/12 01:41:39;;;;;;;7.65;6.95;;;11.50;99.90;;;;;;5073497;28;20218;-63
2021/05/12 01:44:10;;;;;;;10.18;6.85;;;11.70;99.90;;;;;;5073694;28;20208;-63
2021/05/12 01:46:42;;;;;;;8.48;7.38;;;11.50;99.90;;;;;;5073750;28;20190;-63
2021/05/12 01:49:10;;;;;;;9.18;6.93;;;11.50;99.90;;;;;;5073719;28;20183;-63
2021/05/12 01:51:38;;;;;;;8.23;7.50;;;11.50;99.90;;;;;;5073551;28;20274;-63
2021/05/12 01:54:07;;;;;;;8.18;7.38;;;11.50;99.90;;;;;;5072066;28;20319;-63
2021/05/12 01:56:35;;;;;;;7.80;7.10;;;11.40;99.90;;;;;;5073937;28;20207;-63
2021/05/12 01:59:03;;;;;;;9.73;8.05;;;11.40;99.90;;;;;;5073265;28;20223;-63
2021/05/12 02:01:30;;;;;;;8.75;7.72;;;11.50;99.90;;;;;;5072062;28;20215;-63
2021/05/12 02:04:04;;;;;;;9.60;8.00;;;11.50;99.90;;;;;;5073524;28;20758;-63
2021/05/12 02:06:31;;;;;;;9.48;7.72;;;11.40;99.90;;;;;;5073534;28;20169;-63
2021/05/12 02:08:59;;;;;;;9.05;8.13;;;11.40;99.90;;;;;;5073295;28;20571;-63
2021/05/12 02:11:26;;;;;;;9.55;8.65;;;11.40;99.90;;;;;;5073215;28;20215;-63
2021/05/12 02:13:52;;;;;;;8.82;7.70;;;11.40;99.90;;;;;;5073377;28;20207;-63
2021/05/12 02:16:19;;;;;;;9.15;8.25;;;11.50;99.90;;;;;;5073552;28;20218;-63
2021/05/12 02:18:45;;;;;;;10.23;8.70;;;11.50;99.90;;;;;;5072157;28;20200;-64
2021/05/12 02:21:11;;;;;;;9.27;8.40;;;11.50;99.90;;;;;;5073265;28;20677;-64
2021/05/12 02:23:38;;;;;;;8.93;7.85;;;11.40;99.90;;;;;;5076538;28;20667;-64
2021/05/12 02:26:04;;;;;;;10.25;8.00;;;11.50;99.90;;;;;;5077136;28;20199;-64
2021/05/12 02:28:31;;;;;;;12.07;9.32;;;11.50;99.90;;;;;;5077319;28;20204;-64
2021/05/12 02:30:57;;;;;;;9.43;7.90;;;11.50;99.90;;;;;;5077159;28;20299;-64
2021/05/12 02:33:23;;;;;;;12.52;9.10;;;11.50;99.90;;;;;;5076919;28;20194;-64
2021/05/12 02:35:50;;;;;;;10.88;9.35;;;11.50;99.90;;;;;;5076964;28;20198;-64
2021/05/12 02:38:16;;;;;;;10.35;9.20;;;11.50;99.90;;;;;;5077033;28;20653;-64
2021/05/12 02:40:43;;;;;;;9.98;8.52;;;11.50;99.90;;;;;;5077282;28;20705;-64
2021/05/12 02:43:09;;;;;;;11.63;9.27;;;11.50;99.90;;;;;;5076982;28;20542;-64
2021/05/12 02:45:35;;;;;;;10.43;8.77;;;11.50;99.90;;;;;;5076916;28;20295;-63
2021/05/12 02:48:04;;;;;;;13.32;9.95;;;11.50;99.90;;;;;;5076609;28;20661;-63
2021/05/12 02:50:40;;;;;;;11.02;9.25;;;11.40;99.90;;;;;;5076589;28;20219;-63
2021/05/12 02:53:10;;;;;;;11.07;9.98;;;11.40;99.90;;;;;;5075407;28;20227;-63
2021/05/12 02:55:37;;;;;;;11.52;8.95;;;11.40;99.90;;;;;;5076664;28;20562;-63
2021/05/12 02:58:06;;;;;;;10.13;9.07;;;11.40;99.90;;;;;;5076565;28;20199;-63
2021/05/12 03:00:33;;;;;;;10.85;8.45;;;11.40;99.90;;;;;;5076693;28;20231;-63
2021/05/12 03:03:00;;;;;;;9.52;8.63;;;11.40;99.90;;;;;;5076351;28;20254;-63
2021/05/12 03:05:29;;;;;;;12.00;9.20;;;11.40;99.90;;;;;;5075098;28;20639;-63
2021/05/12 03:07:55;;;;;;;10.93;9.30;;;11.40;99.90;;;;;;5075954;28;20283;-63
2021/05/12 03:10:22;;;;;;;12.52;8.30;;;11.40;99.90;;;;;;5075829;28;20223;-63
2021/05/12 03:12:49;;;;;;;12.25;8.15;;;11.40;99.90;;;;;;5075839;28;20655;-63
2021/05/12 03:15:19;;;;;;;10.40;8.27;;;11.40;99.90;;;;;;5075861;28;20195;-63
2021/05/12 03:17:45;;;;;;;9.32;7.90;;;11.40;99.90;;;;;;5076398;28;20275;-63
2021/05/12 03:20:12;;;;;;;11.02;9.70;;;11.40;99.90;;;;;;5076390;28;20219;-63
2021/05/12 03:22:39;;;;;;;9.75;7.90;;;11.40;99.90;;;;;;5076669;28;20553;-63
2021/05/12 03:25:06;;;;;;;10.43;7.85;;;11.40;99.90;;;;;;5076369;28;20642;-63
2021/05/12 03:27:32;;;;;;;18.10;8.60;;;11.40;99.90;;;;;;5076093;28;20218;-63
2021/05/12 03:29:59;;;;;;;8.75;7.05;;;11.40;99.90;;;;;;5076464;28;20212;-63
2021/05/12 03:32:25;;;;;;;9.15;6.80;;;11.40;99.90;;;;;;5076159;28;20656;-63
2021/05/12 03:34:52;;;;;;;9.93;7.13;;;11.20;99.90;;;;;;5075147;28;20238;-63
2021/05/12 03:37:18;;;;;;;8.30;7.47;;;11.40;99.90;;;;;;5075823;28;20196;-63
2021/05/12 03:39:44;;;;;;;10.77;6.85;;;11.60;99.90;;;;;;5075758;28;20188;-64
2021/05/12 03:42:11;;;;;;;9.05;7.25;;;11.50;99.90;;;;;;5076578;28;20505;-63
2021/05/12 03:44:37;;;;;;;8.38;6.05;;;11.50;99.90;;;;;;5075468;28;20204;-63
2021/05/12 03:47:04;;;;;;;7.35;6.65;;;11.40;99.90;;;;;;5075761;28;20203;-63
2021/05/12 03:49:31;;;;;;;8.82;7.05;;;11.40;99.90;;;;;;5075745;28;20191;-63
2021/05/12 03:51:57;;;;;;;9.05;6.85;;;11.40;99.90;;;;;;5075555;28;20235;-63
2021/05/12 03:54:25;;;;;;;7.97;5.80;;;11.40;99.90;;;;;;5075615;28;20220;-63
2021/05/12 03:56:51;;;;;;;7.93;7.13;;;11.40;99.90;;;;;;5075426;28;20204;-64
2021/05/12 03:59:18;;;;;;;10.40;6.40;;;11.30;99.90;;;;;;5074352;28;20290;-63
2021/05/12 04:01:44;;;;;;;9.10;6.55;;;11.40;99.90;;;;;;5075470;28;20203;-63
2021/05/12 04:04:14;;;;;;;8.40;6.20;;;11.40;99.90;;;;;;5074249;28;20191;-63
2021/05/12 04:06:43;;;;;;;8.05;6.70;;;11.40;99.90;;;;;;5075011;28;20228;-63
2021/05/12 04:09:10;;;;;;;10.57;5.97;;;11.30;99.90;;;;;;5075746;28;20204;-63
2021/05/12 04:11:36;;;;;;;7.35;5.20;;;11.30;99.90;;;;;;5075634;28;20222;-63
2021/05/12 04:14:03;;;;;;;13.98;6.50;;;11.30;99.90;;;;;;5074469;28;20563;-63
2021/05/12 04:16:31;;;;;;;9.13;6.00;;;11.30;99.90;;;;;;5075542;28;20196;-63
2021/05/12 04:18:57;;;;;;;8.02;6.00;;;10.80;99.90;;;;;;5075580;28;20204;-63
2021/05/12 04:21:23;;;;;;;8.80;5.60;;;11.20;99.90;;;;;;5080530;28;20218;-64
2021/05/12 04:23:50;;;;;;;6.82;6.13;;;11.20;99.90;;;;;;5081423;28;20196;-66
2021/05/12 04:26:16;;;;;;;8.20;5.35;;;11.20;99.90;;;;;;5080676;28;20348;-66
2021/05/12 04:28:42;;;;;;;6.60;6.10;;;11.20;99.90;;;;;;5080891;28;20188;-66
2021/05/12 04:31:09;;;;;;;6.55;4.90;;;11.20;99.90;;;;;;5081405;28;20247;-66
2021/05/12 04:33:35;;;;;;;7.47;6.00;;;11.20;99.90;;;;;;5081009;28;20661;-66
2021/05/12 04:36:01;;;;;;;7.05;6.20;;;11.20;99.90;;;;;;5081583;28;20196;-66
2021/05/12 04:38:28;;;;;;;6.82;6.20;;;11.20;99.90;;;;;;5081280;28;20561;-66
2021/05/12 04:40:56;;;;;;;7.03;6.32;;;11.20;99.90;;;;;;5081152;28;20215;-66
2021/05/12 04:43:22;;;;;;;6.15;5.55;;;11.20;99.90;;;;;;5080307;28;20208;-66
2021/05/12 04:45:49;;;;;;;7.47;6.78;;;11.00;99.90;;;;;;5080835;28;20271;-66
2021/05/12 04:48:15;;;;;;;7.15;6.43;;;11.10;99.90;;;;;;5080284;28;20628;-66
2021/05/12 04:50:41;;;;;;;7.47;6.75;;;11.10;99.90;;;;;;5080772;28;20299;-65
2021/05/12 04:53:08;;;;;;;7.22;6.60;;;11.10;99.90;;;;;;5081085;28;20315;-66
2021/05/12 04:55:34;;;;;;;9.25;7.80;;;11.00;99.90;;;;;;5080996;28;20191;-66
2021/05/12 04:58:00;;;;;;;7.40;6.60;;;11.10;99.90;;;;;;5081163;28;20188;-65
2021/05/12 05:00:27;;;;;;;8.75;7.28;;;11.10;99.90;;;;;;5081308;28;20753;-65
2021/05/12 05:02:55;;;;;;;7.90;7.13;;;11.10;99.90;;;;;;5082014;28;20210;-65
2021/05/12 05:05:24;;;;;;;9.45;7.05;;;11.10;99.90;;;;;;5080655;28;20211;-66
2021/05/12 05:07:51;;;;;;;10.68;8.23;;;11.10;99.90;;;;;;5081305;28;20291;-65
2021/05/12 05:10:17;;;;;;;9.60;6.82;;;11.10;99.90;;;;;;5082204;28;20208;-65
2021/05/12 05:12:44;;;;;;;8.73;7.90;;;11.10;99.90;;;;;;5081791;28;20561;-66
2021/05/12 05:15:11;;;;;;;13.45;8.10;;;11.10;99.90;;;;;;5079803;28;20200;-66
2021/05/12 05:17:39;;;;;;;8.30;7.43;;;11.10;99.90;;;;;;5081415;28;20215;-65
2021/05/12 05:20:07;;;;;;;7.03;6.32;;;11.20;99.90;;;;;;5082265;28;20219;-65
2021/05/12 05:22:35;;;;;;;10.00;7.03;;;11.20;99.90;;;;;;5081753;28;20279;-65
2021/05/12 05:25:01;;;;;;;16.52;8.50;;;11.10;99.90;;;;;;5081588;28;20562;-65
2021/05/12 05:27:28;;;;;;;6.80;6.30;;;11.20;99.90;;;;;;5081173;28;20188;-65
2021/05/12 05:29:54;;;;;;;7.97;7.28;;;11.20;99.90;;;;;;5081055;28;20286;-65
2021/05/12 05:32:21;;;;;;;10.25;6.50;;;11.20;99.90;;;;;;5081258;28;20222;-65
2021/05/12 05:34:49;;;;;;;7.80;6.97;;;11.20;99.90;;;;;;5080620;28;20208;-65
2021/05/12 05:37:15;;;;;;;11.75;7.32;;;11.20;99.90;;;;;;5080865;28;20304;-65
2021/05/12 05:39:42;;;;;;;8.07;6.65;;;11.20;99.90;;;;;;5076485;28;20587;-64
2021/05/12 05:42:10;;;;;;;8.48;6.60;;;11.20;99.90;;;;;;5060736;28;20223;-65
2021/05/12 05:44:38;;;;;;;8.10;5.82;;;11.20;99.90;;;;;;5070783;28;20644;-64
2021/05/12 05:47:05;;;;;;;12.13;6.68;;;;;;;;;;5057487;28;20189;-64
2021/05/12 05:49:32;;;;;;;11.95;8.50;;;11.40;99.90;;;;;;5072142;28;20640;-64
2021/05/12 05:51:59;;;;;;;8.68;6.18;;;;;;;;;;5056423;28;20542;-65
2021/05/12 05:54:25;;;;;;;12.07;6.75;;;11.20;99.90;;;;;;5076811;28;20231;-64
2021/05/12 05:56:52;;;;;;;11.27;6.75;;;;;;;;;;5065630;28;20208;-65
2021/05/12 05:59:18;;;;;;;7.60;6.90;;;11.20;99.90;;;;;;5074041;28;20191;-64
2021/05/12 06:01:45;;;;;;;7.03;5.68;;;11.40;99.90;;;;;;5077182;28;20188;-64
2021/05/12 06:04:11;;;;;;;6.13;5.53;;;11.20;99.90;;;;;;5077836;28;20191;-65
2021/05/12 06:06:38;;;;;;;7.85;6.75;;;11.20;99.90;;;;;;5065286;28;20285;-65
2021/05/12 06:09:04;;;;;;;7.40;6.35;;;11.20;99.90;;;;;;5063936;28;20199;-65
2021/05/12 06:11:31;;;;;;;9.40;6.10;;;11.30;99.90;;;;;;5057860;28;20213;-64
2021/05/12 06:13:57;;;;;;;11.00;6.05;;;11.30;99.90;;;;;;5056981;28;20264;-64
2021/05/12 06:16:23;;;;;;;9.38;5.95;;;11.30;99.90;;;;;;5056582;28;20649;-65
2021/05/12 06:18:51;;;;;;;8.13;5.50;;;11.40;99.90;;;;;;5056111;28;20201;-65
2021/05/12 06:21:18;;;;;;;6.82;5.50;;;11.40;99.90;;;;;;5055277;28;20201;-65
2021/05/12 06:23:44;;;;;;;10.25;6.65;;;11.50;99.90;;;;;;5057174;28;20202;-64
2021/05/12 06:26:18;;;;;;;10.27;5.95;;;11.50;99.90;;;;;;5057676;28;20193;-64
2021/05/12 06:28:46;;;;;;;5.97;5.47;;;11.40;99.90;;;;;;5055813;28;20204;-65
2021/05/12 06:31:13;;;;;;;8.18;6.30;;;11.50;99.90;;;;;;5058747;28;20223;-65
2021/05/12 06:33:43;;;;;;;7.80;7.00;;;11.50;99.90;;;;;;5061119;28;20201;-64
2021/05/12 06:36:09;;;;;;;7.38;5.60;;;11.50;99.90;;;;;;5057342;28;20208;-64
2021/05/12 06:38:36;;;;;;;8.40;5.60;;;11.50;99.90;;;;;;5056465;28;20197;-64
2021/05/12 06:41:03;;;;;;;6.57;5.78;;;11.30;99.90;;;;;;5057649;28;20209;-64
2021/05/12 06:43:29;;;;;;;7.90;5.70;;;;;;;;;;5059407;28;20232;-64
2021/05/12 06:45:56;;;;;;;12.13;5.88;;;;;;;;;;5057608;28;20205;-64
2021/05/12 06:48:22;;;;;;;8.18;5.22;;;11.40;99.90;;;;;;5059997;28;20627;-64
2021/05/12 06:50:49;;;;;;;6.82;5.50;;;11.40;99.90;;;;;;5055566;28;20235;-65
2021/05/12 06:53:28;;;;;;;10.15;6.55;;;11.40;99.90;;;;;;5056646;28;20228;-64
2021/05/12 06:55:55;;;;;;;11.75;6.50;;;11.80;99.90;;;;;;5057358;28;20621;-65
2021/05/12 06:58:22;;;;;;;6.78;5.78;;;11.40;99.90;;;;;;5056110;28;20600;-64
2021/05/12 07:00:50;;;;;;;6.57;5.25;;;11.40;99.90;;;;;;5054066;28;20205;-65
2021/05/12 07:03:22;;;;;;;7.80;5.22;;;11.40;99.90;;;;;;5054894;28;20668;-65
2021/05/12 07:05:52;;;;;;;8.57;6.15;;;11.40;99.90;;;;;;5054764;28;20189;-65
2021/05/12 07:08:22;;;;;;;9.02;6.32;;;11.40;99.90;;;;;;5054394;28;20687;-65
2021/05/12 07:10:50;;;;;;;7.65;5.60;;;11.40;99.90;;;;;;5057162;28;20229;-65
2021/05/12 07:13:17;;;;;;;6.20;5.68;;;11.40;99.90;;;;;;5057138;28;20201;-65
2021/05/12 07:15:44;;;;;;;6.93;6.10;;;11.40;99.90;;;;;;5057408;28;20200;-65
2021/05/12 07:18:10;;;;;;;5.82;5.20;;;11.40;99.90;;;;;;5058593;28;20205;-65
2021/05/12 07:20:37;;;;;;;7.75;6.00;;;11.40;99.90;;;;;;5058961;28;20199;-65
2021/05/12 07:23:05;;;;;;;8.73;6.95;;;11.40;99.90;;;;;;5057638;28;20205;-65
2021/05/12 07:25:32;;;;;;;7.10;5.80;;;11.40;99.90;;;;;;5058802;28;20668;-65
2021/05/12 07:27:59;;;;;;;12.00;6.22;;;11.40;99.90;;;;;;5057472;28;20204;-65
2021/05/12 07:30:26;;;;;;;8.85;6.25;;;11.40;99.90;;;;;;5059173;28;20204;-65
2021/05/12 07:32:53;;;;;;;7.78;6.30;;;11.40;99.90;;;;;;5058161;28;20213;-65
2021/05/12 07:35:19;;;;;;;9.55;5.30;;;11.50;99.90;;;;;;5058206;28;20196;-65
2021/05/12 07:37:46;;;;;;;10.10;6.07;;;11.50;99.90;;;;;;5058130;28;20583;-65
2021/05/12 07:40:13;;;;;;;11.88;5.30;;;11.40;99.90;;;;;;5057786;28;20239;-65
2021/05/12 07:42:42;;;;;;;5.90;5.05;;;11.30;99.90;;;;;;5058457;28;20208;-65
2021/05/12 07:45:11;;;;;;;8.10;4.35;;;11.30;99.90;;;;;;5058712;28;20204;-65
2021/05/12 07:47:38;;;;;;;7.85;4.53;;;11.20;99.90;;;;;;5057292;28;20236;-65
2021/05/12 07:50:07;;;;;;;7.85;4.72;;;11.20;99.90;;;;;;5058757;28;20300;-65
2021/05/12 07:52:34;;;;;;;4.38;3.97;;;11.10;99.90;;;;;;5057796;28;20235;-65
2021/05/12 07:55:00;;;;;;;5.53;5.03;;;11.20;99.90;;;;;;5057959;28;20211;-65
2021/05/12 07:57:26;;;;;;;10.88;4.32;;;11.10;99.90;;;;;;5057482;28;20200;-66
2021/05/12 07:59:53;;;;;;;10.95;5.13;;;11.10;99.90;;;;;;5057520;28;20291;-64
2021/05/12 08:02:19;;;;;;;4.93;4.32;;;11.10;99.90;;;;;;5057143;28;20201;-64
2021/05/12 08:04:46;;;;;;;5.43;4.93;;;11.10;99.90;;;;;;5056919;28;20209;-65
2021/05/12 08:07:12;;;;;;;13.82;4.47;;;11.10;99.90;;;;;;5056274;28;20275;-64
2021/05/12 08:09:38;;;;;;;6.60;4.40;;;11.00;99.90;;;;;;5057890;28;20253;-65
2021/05/12 08:12:05;;;;;;;5.25;4.82;;;11.10;99.90;;;;;;5060275;28;20225;-65
2021/05/12 08:14:32;;;;;;;5.22;4.72;;;11.10;99.90;;;;;;5060580;28;20640;-65
2021/05/12 08:16:58;;;;;;;8.30;4.43;;;11.10;99.90;;;;;;5060487;28;20267;-65
2021/05/12 08:19:25;;;;;;;5.82;5.30;;;11.20;99.90;;;;;;5061031;28;20192;-65
2021/05/12 08:21:51;;;;;;;5.57;5.03;;;11.20;99.90;;;;;;5060896;28;20209;-65
2021/05/12 08:24:17;;;;;;;6.03;4.88;;;11.30;99.90;;;;;;5061501;28;20195;-65
2021/05/12 08:26:44;;;;;;;5.55;4.30;;;11.30;99.90;;;;;;5059332;28;20246;-65
2021/05/12 08:29:10;;;;;;;6.20;4.18;;;11.30;99.90;;;;;;5058746;28;20193;-65
2021/05/12 08:31:38;;;;;;;4.60;4.20;;;11.40;99.90;;;;;;5060398;28;20234;-65
2021/05/12 08:34:06;;;;;;;5.00;4.25;;;11.40;99.90;;;;;;5058616;28;20196;-65
2021/05/12 08:36:33;;;;;;;4.78;4.38;;;11.50;99.90;;;;;;5059967;28;20205;-66
2021/05/12 08:39:00;;;;;;;7.35;4.85;;;11.60;99.90;;;;;;5057542;28;20577;-65
2021/05/12 08:41:26;;;;;;;4.70;4.30;;;11.70;99.90;;;;;;5056582;28;20225;-65
2021/05/12 08:43:53;;;;;;;5.80;5.30;;;11.80;99.90;;;;;;5056740;28;20276;-65
2021/05/12 08:46:20;;;;;;;6.50;4.43;;;11.90;99.90;;;;;;5057458;28;20200;-65
2021/05/12 08:48:49;;;;;;;6.60;4.85;;;12.20;99.90;;;;;;5056608;28;20189;-65
2021/05/12 08:51:15;;;;;;;5.47;4.03;;;12.20;99.90;;;;;;5054902;28;20225;-65
2021/05/12 08:53:42;;;;;;;6.22;4.72;;;12.50;99.90;;;;;;5055502;28;20311;-65
2021/05/12 08:56:09;;;;;;;4.80;3.88;;;12.50;99.90;;;;;;5055168;28;20198;-64
2021/05/12 08:58:35;;;;;;;5.97;4.72;;;12.60;99.90;;;;;;5055351;28;20200;-65
2021/05/12 09:01:02;;;;;;;4.40;4.10;;;12.50;99.90;;;;;;5056728;28;20605;-65
2021/05/12 09:03:28;;;;;;;4.88;4.35;;;12.40;99.90;;;;;;5039253;28;20204;-65
2021/05/12 09:05:58;;;;;;;5.25;4.35;;;12.30;99.90;;;;;;5057617;28;20228;-65
2021/05/12 09:08:27;;;;;;;5.43;3.63;;;12.30;99.90;;;;;;5057927;28;20193;-65
2021/05/12 09:10:54;;;;;;;10.23;4.50;;;12.50;99.90;;;;;;5056379;28;20209;-65
2021/05/12 09:13:37;;;;;;;4.30;3.50;;;12.80;99.90;;;;;;5055758;28;20211;-65
2021/05/12 09:16:25;;;;;;;3.70;3.40;;;12.60;99.90;;;;;;5058046;28;20530;-65
2021/05/12 09:19:05;;;;;;;4.70;4.20;;;12.60;99.90;;;;;;5057267;28;20180;-65
2021/05/12 09:21:57;;;;;;;4.57;4.15;;;12.70;99.90;;;;;;5056213;28;20215;-65
2021/05/12 09:24:28;;;;;;;7.05;4.18;;;12.90;99.90;;;;;;5057513;28;20276;-65
2021/05/12 09:26:57;;;;;;;4.73;3.67;;;13.10;99.90;;;;;;5058822;28;20546;-65
2021/05/12 09:29:41;;;;;;;7.90;4.10;;;13.00;99.90;;;;;;5056636;28;21012;-65
2021/05/12 09:32:09;;;;;;;6.18;4.25;;;13.10;99.90;;;;;;5057645;28;20216;-65
2021/05/12 09:34:53;;;;;;;8.57;3.78;;;13.10;99.90;;;;;;5058971;28;20615;-65
2021/05/12 09:37:39;;;;;;;9.55;4.60;;;13.40;99.90;;;;;;5058728;28;20180;-65
2021/05/12 09:40:17;;;;;;;5.23;4.73;;;13.60;99.90;;;;;;5059864;28;20586;-65
2021/05/12 09:42:54;;;;;;;9.13;4.68;;;13.60;99.90;;;;;;5058689;28;21189;-65
2021/05/12 09:45:23;;;;;;;4.83;4.30;;;13.80;99.90;;;;;;5059409;28;20192;-65
2021/05/12 09:47:58;;;;;;;6.20;4.47;;;13.60;99.90;;;;;;5057967;28;20591;-65
2021/05/12 09:50:27;;;;;;;4.03;3.73;;;13.50;99.90;;;;;;5058527;28;20620;-65
2021/05/12 09:52:56;;;;;;;4.23;3.53;;;13.40;99.90;;;;;;5059458;28;20681;-65
2021/05/12 09:55:36;;;;;;;4.30;3.90;;;13.30;99.90;;;;;;5057834;28;20627;-65
2021/05/12 09:58:10;;;;;;;6.33;4.20;;;13.30;99.90;;;;;;5059042;28;20656;-65
2021/05/12 10:00:41;;;;;;;4.53;4.13;;;13.30;99.90;;;;;;5057398;28;20623;-65
2021/05/12 10:03:11;;;;;;;4.07;3.77;;;13.10;99.90;;;;;;5056345;28;20593;-65
2021/05/12 10:05:57;;;;;;;9.70;4.37;;;13.10;99.90;;;;;;5058000;28;20539;-65
2021/05/12 10:08:25;;;;;;;4.20;3.80;;;13.30;99.90;;;;;;5057412;28;20556;-65
2021/05/12 10:11:03;;;;;;;5.23;4.00;;;13.40;99.90;;;;;;5054774;28;20565;-65
2021/05/12 10:13:31;;;;;;;6.67;3.63;;;13.50;99.90;;;;;;5056113;28;20907;-64
2021/05/12 10:15:58;;;;;;;4.83;4.17;;;13.70;99.90;;;;;;5055806;28;21150;-64
2021/05/12 10:18:24;;;;;;;10.03;4.83;;;13.80;99.90;;;;;;5056996;28;20615;-64
2021/05/12 10:20:58;;;;;;;4.00;3.60;;;13.80;99.90;;;;;;5056998;28;20619;-65
2021/05/12 10:23:25;;;;;;;4.27;3.70;;;13.50;99.90;;;;;;5061233;28;21075;-65
2021/05/12 10:25:53;;;;;;;3.80;3.27;;;13.50;99.90;;;;;;5060317;28;20985;-64
2021/05/12 10:28:20;;;;;;;7.03;6.00;;;13.80;99.90;;;;;;5060248;28;20644;-64
2021/05/12 10:30:50;;;;;;;5.63;3.60;;;13.70;99.90;;;;;;5060569;28;20660;-64
2021/05/12 10:33:37;;;;;;;10.33;3.70;;;13.80;99.90;;;;;;5058242;28;21011;-64
2021/05/12 10:36:09;;;;;;;7.90;4.80;;;13.90;99.90;;;;;;5057989;28;20614;-64
2021/05/12 10:38:36;;;;;;;7.80;3.90;;;14.30;99.90;;;;;;5060138;28;20974;-64
2021/05/12 10:41:03;;;;;;;7.97;4.30;;;14.40;99.90;;;;;;5059459;28;20734;-64
2021/05/12 10:43:38;;;;;;;5.50;4.20;;;15.20;99.90;;;;;;5060263;28;20625;-64
2021/05/12 10:46:17;;;;;;;4.57;3.30;;;15.20;99.90;;;;;;5061192;28;21171;-64
2021/05/12 10:48:48;;;;;;;13.23;5.73;;;14.90;99.90;;;;;;5061780;28;20694;-64
2021/05/12 10:51:20;;;;;;;7.13;3.20;;;15.00;99.90;;;;;;5061321;28;20614;-65
2021/05/12 10:53:51;;;;;;;5.53;3.80;;;15.10;99.90;;;;;;5060190;28;20651;-64
2021/05/12 10:56:20;;;;;;;8.43;3.73;;;15.40;99.90;;;;;;5058985;28;20615;-65
2021/05/12 10:58:56;;;;;;;6.27;3.37;;;15.40;99.90;;;;;;5057754;28;20653;-64
2021/05/12 11:01:25;;;;;;;6.70;3.00;;;15.60;99.90;;;;;;5057467;28;20650;-65
2021/05/12 11:03:52;;;;;;;3.37;3.07;;;15.50;99.90;;;;;;5057116;28;20609;-66
2021/05/12 11:06:23;;;;;;;9.53;3.63;;;15.80;99.90;;;;;;5058336;28;20631;-66
2021/05/12 11:09:17;;;;;;;17.43;9.70;;;15.80;99.90;;;;;;5057623;28;20571;-65
2021/05/12 11:11:44;;;;;;;11.03;7.10;;;15.80;99.90;;;;;;5057406;28;20663;-65
2021/05/12 11:14:25;;;;;;;7.80;6.10;;;15.90;99.90;;;;;;5058270;28;20619;-65
2021/05/12 11:17:12;;;;;;;3.53;2.87;;;15.50;99.90;;;;;;5057577;28;20623;-65
2021/05/12 11:19:42;;;;;;;10.97;4.57;;;15.80;99.90;;;;;;5056886;28;20603;-65
2021/05/12 11:33:34;;;;;;;9.70;2.60;;;16.70;99.90;;;;;;5056784;28;20615;-66
2021/05/12 11:36:17;;;;;;;2.60;2.23;;;17.20;99.90;;;;;;5060451;28;20654;-66
2021/05/12 11:38:43;;;;;;;6.47;2.03;;;17.60;99.90;;;;;;5059657;28;21229;-66
2021/05/12 11:41:17;;;;;;;5.93;2.47;;;18.00;99.90;;;;;;5057157;28;20630;-63
2021/05/12 11:44:01;;;;;;;3.30;3.00;;;18.10;99.90;;;;;;5055936;28;20626;-64
2021/05/12 11:46:41;;;;;;;3.40;2.10;;;17.90;99.90;;;;;;5054595;28;20717;-63
2021/05/12 11:49:13;;;;;;;4.70;1.70;;;18.10;99.90;;;;;;5055954;28;20642;-63
2021/05/12 11:51:45;;;;;;;3.27;1.63;;;17.60;99.90;;;;;;5055542;28;20567;-64
2021/05/12 11:54:21;;;;;;;4.70;2.33;;;16.90;99.90;;;;;;5055642;28;20635;-64
2021/05/12 11:56:54;;;;;;;2.67;2.00;;;16.40;99.90;;;;;;5055650;28;20714;-63
2021/05/12 11:59:24;;;;;;;4.03;2.43;;;16.40;99.90;;;;;;5056834;28;20635;-64
2021/05/12 12:01:58;;;;;;;5.23;3.43;;;17.00;99.90;;;;;;5056653;28;20623;-63
2021/05/12 12:05:09;;;;;;;5.10;2.50;;;16.70;99.90;;;;;;5054743;28;20627;-64
2021/05/12 12:07:12;;;;;;;4.20;2.83;;;16.80;99.90;;;;;;5058011;28;20641;-64
2021/05/12 12:09:38;;;;;;;3.77;2.50;;;16.70;99.90;;;;;;5055895;28;21224;-64
2021/05/12 12:12:06;;;;;;;4.43;2.73;;;16.80;99.90;;;;;;5055028;28;20657;-64
2021/05/12 12:14:34;;;;;;;4.57;2.40;;;16.40;99.90;;;;;;5055525;28;20654;-63
2021/05/12 12:17:12;;;;;;;8.70;2.60;;;16.40;99.90;;;;;;5054988;28;21171;-64
2021/05/12 12:19:39;;;;;;;4.33;1.80;;;16.60;99.90;;;;;;5055371;28;20943;-63
2021/05/12 12:22:05;;;;;;;5.63;2.10;;;16.80;99.90;;;;;;5055152;28;20574;-63
2021/05/12 12:24:32;;;;;;;4.17;2.17;;;16.40;99.90;;;;;;5055078;28;20591;-63
2021/05/12 12:27:00;;;;;;;2.77;1.70;;;16.50;99.90;;;;;;5055150;28;20627;-63
2021/05/12 12:29:31;;;;;;;3.23;1.60;;;16.60;99.90;;;;;;5054667;28;20605;-63
2021/05/12 12:32:06;;;;;;;2.33;2.00;;;16.70;99.90;;;;;;5055545;28;20726;-64
2021/05/12 12:34:37;;;;;;;2.77;1.87;;;16.70;99.90;;;;;;5055469;28;20666;-63
2021/05/12 12:37:12;;;;;;;2.40;2.20;;;16.80;99.90;;;;;;5054751;28;21193;-63
2021/05/12 12:39:39;;;;;;;10.90;2.97;;;16.80;99.90;;;;;;5055290;28;20997;-64
2021/05/12 12:42:06;;;;;;;3.40;2.30;;;16.80;99.90;;;;;;5055375;28;20622;-64
2021/05/12 12:44:38;;;;;;;5.67;2.87;;;17.30;99.90;;;;;;5054788;28;20731;-64
2021/05/12 12:47:13;;;;;;;3.90;2.00;;;17.70;99.90;;;;;;5054511;28;20603;-63
2021/05/12 12:49:47;;;;;;;2.90;1.73;;;17.80;99.90;;;;;;5054901;28;20650;-65
2021/05/12 12:52:15;;;;;;;4.83;1.70;;;17.90;99.90;;;;;;5053485;28;20666;-64
2021/05/12 12:57:21;;;;;;;2.47;1.50;;;19.30;99.90;;;;;;5072802;28;20586;-64
2021/05/12 13:00:05;;;;;;;3.20;1.40;;;19.40;99.90;;;;;;5059706;28;20660;-63
2021/05/12 13:02:31;;;;;;;2.93;1.87;;;18.70;99.90;;;;;;5073820;28;20590;-63
2021/05/12 13:05:17;;;;;;;3.97;2.23;;;18.60;99.90;;;;;;5074046;28;20637;-64
2021/05/12 13:07:45;;;;;;;2.13;1.63;;;19.00;99.90;;;;;;5059639;28;20583;-64
2021/05/12 13:10:36;;;;;;;2.03;1.67;;;18.80;99.90;;;;;;5073412;28;20633;-64
2021/05/12 13:13:03;;;;;;;3.50;1.30;;;17.60;99.90;;;;;;5073313;28;20613;-63